createdAt,value
2022-11-30T00:00:58.805Z,73.66
2022-11-30T00:03:26.399Z,73.58
2022-11-30T00:05:53.338Z,73.66
2022-11-30T00:08:20.240Z,73.67
2022-11-30T00:10:47.061Z,73.44
2022-11-30T00:13:13.909Z,73.55
2022-11-30T00:15:40.761Z,73.35
2022-11-30T00:18:08.309Z,73.46
2022-11-30T00:20:35.152Z,73.49
2022-11-30T00:23:01.913Z,73.46
2022-11-30T00:25:28.808Z,73.41
2022-11-30T00:27:55.675Z,73.24
2022-11-30T00:30:22.728Z,73.27
2022-11-30T00:32:49.509Z,73.37
2022-11-30T00:35:18.081Z,73.54
2022-11-30T00:37:45.326Z,73.60
2022-11-30T00:40:15.320Z,73.54
2022-11-30T00:42:42.673Z,73.43
2022-11-30T00:45:10.662Z,73.64
2022-11-30T00:47:37.588Z,73.77
2022-11-30T00:50:06.635Z,73.87
2022-11-30T00:52:33.577Z,73.63
2022-11-30T00:55:03.917Z,73.61
2022-11-30T00:57:31.269Z,73.80
2022-11-30T00:59:58.197Z,73.61
2022-11-30T01:02:25.241Z,73.70
2022-11-30T01:04:52.493Z,73.74
2022-11-30T01:07:19.468Z,73.63
2022-11-30T01:09:58.252Z,73.62
2022-11-30T01:12:26.358Z,73.61
2022-11-30T01:14:53.301Z,73.73
2022-11-30T01:17:20.271Z,73.73
2022-11-30T01:19:47.411Z,73.84
2022-11-30T01:22:15.392Z,73.65
2022-11-30T01:24:42.683Z,73.80
2022-11-30T01:27:09.901Z,73.57
2022-11-30T01:29:37.045Z,73.68
2022-11-30T01:32:04.281Z,73.81
2022-11-30T01:34:32.036Z,73.95
2022-11-30T01:36:59.379Z,73.78
2022-11-30T01:39:26.553Z,73.95
2022-11-30T01:41:55.224Z,73.85
2022-11-30T01:44:27.407Z,73.98
2022-11-30T01:47:02.254Z,74.01
2022-11-30T01:49:35.592Z,73.73
2022-11-30T01:52:05.771Z,73.78
2022-11-30T01:54:39.309Z,73.96
2022-11-30T01:57:15.177Z,73.79
2022-11-30T01:59:42.304Z,73.92
2022-11-30T02:02:10.799Z,73.88
2022-11-30T02:04:39.065Z,73.68
2022-11-30T02:07:08.490Z,73.73
2022-11-30T02:09:43.689Z,73.82
2022-11-30T02:12:45.003Z,73.80
2022-11-30T02:15:21.753Z,73.78
2022-11-30T02:17:57.548Z,73.88
2022-11-30T02:20:40.455Z,73.98
2022-11-30T02:23:41.372Z,73.76
2022-11-30T02:26:24.355Z,73.95
2022-11-30T02:29:25.761Z,73.77
2022-11-30T02:32:08.923Z,73.73
2022-11-30T02:34:37.955Z,73.81
2022-11-30T02:37:11.217Z,73.74
2022-11-30T02:39:38.212Z,73.59
2022-11-30T02:42:10.808Z,73.65
2022-11-30T02:44:37.932Z,73.89
2022-11-30T02:47:18.442Z,73.76
2022-11-30T02:50:06.678Z,73.71
2022-11-30T02:52:34.724Z,73.82
2022-11-30T02:55:08.350Z,73.60
2022-11-30T02:57:35.813Z,73.60
2022-11-30T03:00:07.379Z,73.62
2022-11-30T03:02:34.909Z,73.62
2022-11-30T03:05:01.913Z,73.48
2022-11-30T03:07:28.840Z,73.46
2022-11-30T03:09:56.005Z,73.57
2022-11-30T03:12:23.002Z,73.22
2022-11-30T03:14:49.996Z,73.37
2022-11-30T03:17:17.369Z,73.29
2022-11-30T03:19:44.456Z,73.38
2022-11-30T03:22:13.432Z,73.62
2022-11-30T03:24:42.134Z,73.58
2022-11-30T03:27:10.026Z,73.67
2022-11-30T03:29:37.211Z,73.67
2022-11-30T03:32:04.208Z,73.58
2022-11-30T03:34:31.425Z,73.43
2022-11-30T03:36:58.310Z,73.24
2022-11-30T03:39:25.239Z,73.49
2022-11-30T03:41:52.520Z,73.50
2022-11-30T03:44:19.800Z,73.43
2022-11-30T03:46:47.161Z,73.54
2022-11-30T03:49:16.421Z,73.64
2022-11-30T03:51:43.277Z,73.69
2022-11-30T03:54:10.284Z,73.47
2022-11-30T03:56:37.263Z,73.54
2022-11-30T03:59:04.640Z,73.29
2022-11-30T04:01:31.782Z,73.37
2022-11-30T04:03:59.225Z,73.62
2022-11-30T04:06:26.165Z,73.63
2022-11-30T04:08:55.590Z,73.43
2022-11-30T04:11:22.523Z,73.54
2022-11-30T04:13:49.440Z,73.52
2022-11-30T04:16:17.570Z,73.44
2022-11-30T04:18:44.540Z,73.54
2022-11-30T04:21:12.028Z,73.61
2022-11-30T04:23:40.559Z,73.63
2022-11-30T04:26:11.393Z,73.42
2022-11-30T04:28:38.348Z,73.45
2022-11-30T04:31:05.747Z,73.31
2022-11-30T04:33:34.002Z,73.53
2022-11-30T04:36:05.207Z,73.38
2022-11-30T04:38:35.103Z,73.36
2022-11-30T04:41:09.465Z,73.62
2022-11-30T04:43:38.738Z,73.42
2022-11-30T04:46:06.872Z,73.40
2022-11-30T04:48:34.448Z,73.55
2022-11-30T04:51:07.151Z,73.55
2022-11-30T04:53:34.830Z,73.54
2022-11-30T04:56:10.845Z,73.31
2022-11-30T04:58:40.657Z,73.17
2022-11-30T05:01:09.108Z,73.21
2022-11-30T05:03:35.987Z,73.45
2022-11-30T05:06:03.611Z,73.32
2022-11-30T05:08:31.793Z,73.52
2022-11-30T05:10:59.239Z,73.26
2022-11-30T05:13:27.990Z,73.57
2022-11-30T05:15:55.343Z,73.48
2022-11-30T05:18:22.363Z,73.53
2022-11-30T05:20:50.607Z,73.39
2022-11-30T05:23:18.209Z,73.27
2022-11-30T05:25:46.051Z,73.53
2022-11-30T05:28:13.390Z,73.22
2022-11-30T05:30:41.608Z,73.44
2022-11-30T05:33:09.205Z,73.31
2022-11-30T05:35:36.400Z,73.33
2022-11-30T05:38:03.894Z,73.26
2022-11-30T05:40:32.819Z,73.16
2022-11-30T05:43:02.233Z,73.36
2022-11-30T05:45:30.037Z,73.42
2022-11-30T05:47:56.883Z,73.25
2022-11-30T05:50:24.050Z,73.52
2022-11-30T05:53:14.343Z,73.52
2022-11-30T05:55:42.342Z,73.37
2022-11-30T05:58:09.357Z,73.34
2022-11-30T06:00:38.013Z,73.57
2022-11-30T06:03:05.210Z,73.49
2022-11-30T06:05:35.227Z,73.64
2022-11-30T06:08:02.239Z,73.57
2022-11-30T06:10:29.272Z,73.58
2022-11-30T06:12:57.124Z,73.55
2022-11-30T06:15:24.407Z,73.42
2022-11-30T06:17:51.469Z,73.60
2022-11-30T06:20:18.536Z,73.36
2022-11-30T06:22:47.445Z,73.50
2022-11-30T06:25:15.226Z,73.62
2022-11-30T06:27:43.828Z,73.40
2022-11-30T06:30:11.568Z,73.41
2022-11-30T06:32:38.793Z,73.43
2022-11-30T06:35:09.207Z,73.54
2022-11-30T06:37:38.150Z,73.58
2022-11-30T06:40:07.555Z,73.41
2022-11-30T06:42:37.065Z,73.54
2022-11-30T06:45:05.922Z,73.39
2022-11-30T06:47:35.248Z,73.61
2022-11-30T06:50:02.386Z,73.41
2022-11-30T06:52:33.893Z,73.41
2022-11-30T06:55:00.925Z,73.41
2022-11-30T06:57:31.330Z,73.58
2022-11-30T06:59:58.559Z,73.59
2022-11-30T07:05:25.704Z,73.33
2022-11-30T07:07:52.938Z,73.40
2022-11-30T07:10:23.417Z,73.38
2022-11-30T07:12:50.670Z,73.61
2022-11-30T07:15:18.746Z,73.44
2022-11-30T07:17:45.717Z,73.44
2022-11-30T07:20:13.654Z,73.51
2022-11-30T07:22:40.599Z,73.46
2022-11-30T07:25:26.859Z,73.42
2022-11-30T07:27:57.084Z,73.51
2022-11-30T07:30:24.087Z,73.25
2022-11-30T07:32:55.389Z,73.19
2022-11-30T07:35:25.020Z,73.30
2022-11-30T07:37:52.059Z,73.48
2022-11-30T07:40:19.047Z,73.31
2022-11-30T07:42:46.201Z,73.42
2022-11-30T07:45:14.452Z,73.34
2022-11-30T07:47:41.490Z,73.49
2022-11-30T07:50:09.991Z,73.36
2022-11-30T07:52:36.974Z,73.22
2022-11-30T07:55:04.282Z,73.08
2022-11-30T07:57:31.403Z,73.05
2022-11-30T07:59:58.256Z,73.31
2022-11-30T08:02:25.350Z,73.33
2022-11-30T08:04:52.725Z,73.37
2022-11-30T08:07:20.237Z,73.37
2022-11-30T08:09:49.261Z,73.20
2022-11-30T08:12:16.302Z,73.19
2022-11-30T08:15:17.654Z,73.37
2022-11-30T08:17:30.161Z,73.39
2022-11-30T08:19:57.125Z,73.13
2022-11-30T08:22:24.055Z,73.33
2022-11-30T08:24:51.146Z,73.20
2022-11-30T08:27:20.473Z,73.28
2022-11-30T08:29:47.320Z,73.32
2022-11-30T08:32:14.693Z,73.23
2022-11-30T08:34:42.207Z,73.48
2022-11-30T08:37:09.369Z,73.46
2022-11-30T08:39:36.246Z,73.68
2022-11-30T08:42:04.252Z,73.41
2022-11-30T08:44:31.181Z,73.59
2022-11-30T08:46:58.177Z,73.42
2022-11-30T08:49:25.500Z,73.65
2022-11-30T08:54:45.715Z,73.82
2022-11-30T08:57:13.889Z,73.71
2022-11-30T08:59:40.820Z,73.80
2022-11-30T09:02:10.304Z,73.84
2022-11-30T09:04:37.302Z,73.50
2022-11-30T09:07:04.478Z,73.48
2022-11-30T09:09:31.971Z,73.36
2022-11-30T09:11:58.825Z,73.31
2022-11-30T09:14:25.824Z,73.31
2022-11-30T09:16:54.896Z,73.11
2022-11-30T09:19:23.057Z,73.23
2022-11-30T09:21:52.280Z,73.40
2022-11-30T09:24:20.738Z,73.37
2022-11-30T09:26:47.886Z,73.30
2022-11-30T09:29:16.848Z,73.12
2022-11-30T09:31:43.924Z,73.00
2022-11-30T09:34:12.215Z,72.80
2022-11-30T09:36:39.415Z,72.99
2022-11-30T09:39:06.783Z,72.78
2022-11-30T09:41:37.194Z,72.92
2022-11-30T09:44:24.065Z,72.61
2022-11-30T09:47:02.949Z,72.50
2022-11-30T09:49:39.855Z,72.42
2022-11-30T09:52:17.358Z,72.53
2022-11-30T09:54:47.237Z,72.31
2022-11-30T09:57:30.443Z,72.45
2022-11-30T10:00:02.936Z,72.46
2022-11-30T10:02:39.943Z,72.21
2022-11-30T10:05:45.928Z,72.50
2022-11-30T10:08:31.857Z,72.36
2022-11-30T10:11:17.742Z,72.21
2022-11-30T10:14:28.141Z,72.18
2022-11-30T10:16:54.939Z,72.01
2022-11-30T10:20:07.193Z,72.11
2022-11-30T10:22:50.721Z,72.01
2022-11-30T10:25:43.368Z,72.08
2022-11-30T10:28:48.661Z,71.87
2022-11-30T10:31:18.658Z,71.80
2022-11-30T10:33:51.823Z,71.71
2022-11-30T10:36:31.284Z,71.73
2022-11-30T10:39:02.199Z,71.45
2022-11-30T10:41:52.607Z,71.61
2022-11-30T10:44:26.663Z,71.66
2022-11-30T10:47:01.430Z,71.50
2022-11-30T10:49:30.167Z,71.38
2022-11-30T10:52:04.849Z,71.42
2022-11-30T10:54:32.618Z,71.37
2022-11-30T10:57:02.430Z,71.28
2022-11-30T10:59:50.771Z,71.32
2022-11-30T11:02:37.677Z,71.34
2022-11-30T11:05:26.519Z,71.20
2022-11-30T11:08:06.786Z,71.42
2022-11-30T11:10:45.433Z,71.17
2022-11-30T11:13:38.970Z,71.08
2022-11-30T11:16:09.078Z,71.16
2022-11-30T11:18:37.901Z,71.19
2022-11-30T11:21:18.811Z,71.01
2022-11-30T11:23:47.737Z,70.99
2022-11-30T11:26:25.420Z,70.64
2022-11-30T11:28:55.215Z,70.57
2022-11-30T11:31:46.314Z,70.78
2022-11-30T11:34:35.507Z,70.48
2022-11-30T11:37:21.745Z,70.53
2022-11-30T11:40:01.490Z,70.67
2022-11-30T11:45:54.749Z,70.77
2022-11-30T11:48:36.051Z,70.68
2022-11-30T11:51:10.192Z,70.59
2022-11-30T11:53:51.716Z,70.83
2022-11-30T11:56:28.407Z,70.86
2022-11-30T11:59:03.673Z,70.56
2022-11-30T12:02:05.890Z,70.44
2022-11-30T12:04:47.893Z,70.56
2022-11-30T12:07:19.658Z,71.09
2022-11-30T12:10:00.100Z,70.88
2022-11-30T12:12:31.709Z,70.36
2022-11-30T12:14:59.067Z,69.93
2022-11-30T12:17:50.907Z,69.73
2022-11-30T12:20:29.515Z,69.14
2022-11-30T12:23:38.186Z,69.47
2022-11-30T12:26:24.660Z,69.22
2022-11-30T12:29:30.054Z,69.28
2022-11-30T12:32:25.091Z,68.99
2022-11-30T12:35:05.165Z,68.99
2022-11-30T12:38:17.440Z,69.31
2022-11-30T12:41:01.417Z,69.29
2022-11-30T12:43:59.538Z,69.40
2022-11-30T12:46:41.366Z,69.40
2022-11-30T12:49:34.788Z,69.33
2022-11-30T12:52:08.708Z,69.26
2022-11-30T12:55:07.833Z,69.27
2022-11-30T12:57:49.035Z,69.29
2022-11-30T13:00:21.960Z,69.24
2022-11-30T13:03:28.516Z,69.10
2022-11-30T13:06:00.455Z,69.02
2022-11-30T13:08:53.514Z,68.99
2022-11-30T13:11:30.656Z,69.23
2022-11-30T13:14:00.574Z,69.21
2022-11-30T13:16:31.136Z,69.05
2022-11-30T13:19:29.887Z,69.30
2022-11-30T13:22:02.362Z,68.95
2022-11-30T13:24:36.539Z,69.21
2022-11-30T13:27:31.455Z,69.08
2022-11-30T13:30:19.440Z,69.08
2022-11-30T13:32:57.893Z,69.09
2022-11-30T13:35:28.924Z,68.90
2022-11-30T13:41:08.710Z,68.75
2022-11-30T13:43:49.952Z,69.01
2022-11-30T13:46:22.142Z,68.80
2022-11-30T13:48:50.197Z,69.21
2022-11-30T13:51:39.272Z,69.15
2022-11-30T13:54:45.665Z,68.97
2022-11-30T13:57:24.943Z,69.05
2022-11-30T13:59:54.360Z,69.06
2022-11-30T14:02:33.789Z,68.84
2022-11-30T14:05:16.247Z,68.71
2022-11-30T14:07:52.247Z,68.78
2022-11-30T14:10:33.982Z,68.83
2022-11-30T14:13:05.511Z,68.93
2022-11-30T14:15:39.279Z,68.84
2022-11-30T14:18:09.404Z,68.94
2022-11-30T14:21:00.160Z,68.94
2022-11-30T14:23:32.266Z,68.59
2022-11-30T14:26:11.058Z,68.88
2022-11-30T14:28:52.454Z,68.77
2022-11-30T14:31:24.367Z,68.63
2022-11-30T14:33:56.070Z,68.48
2022-11-30T14:36:28.806Z,68.63
2022-11-30T14:38:55.648Z,68.61
2022-11-30T14:41:30.489Z,68.85
2022-11-30T14:44:06.223Z,69.00
2022-11-30T14:46:36.026Z,69.01
2022-11-30T14:49:13.256Z,68.81
2022-11-30T14:51:42.663Z,68.81
2022-11-30T14:54:30.815Z,68.85
2022-11-30T14:57:19.883Z,68.81
2022-11-30T14:59:54.476Z,68.90
2022-11-30T15:02:39.194Z,69.08
2022-11-30T15:05:08.834Z,68.70
2022-11-30T15:07:37.391Z,69.13
2022-11-30T15:10:11.460Z,68.88
2022-11-30T15:12:41.946Z,69.02
2022-11-30T15:15:15.667Z,68.85
2022-11-30T15:17:47.414Z,68.74
2022-11-30T15:20:23.400Z,68.79
2022-11-30T15:22:51.078Z,68.80
2022-11-30T15:25:20.918Z,68.88
2022-11-30T15:27:48.005Z,68.60
2022-11-30T15:30:16.974Z,68.67
2022-11-30T15:32:47.519Z,68.69
2022-11-30T15:35:57.059Z,68.74
2022-11-30T15:38:24.648Z,68.59
2022-11-30T15:40:55.289Z,68.28
2022-11-30T15:43:26.061Z,68.31
2022-11-30T15:45:58.180Z,68.44
2022-11-30T15:48:39.106Z,68.28
2022-11-30T15:51:06.887Z,68.00
2022-11-30T15:53:53.959Z,68.11
2022-11-30T15:56:26.272Z,68.14
2022-11-30T15:59:08.276Z,68.06
2022-11-30T16:02:24.514Z,67.85
2022-11-30T16:04:57.704Z,67.87
2022-11-30T16:07:28.417Z,67.55
2022-11-30T16:10:06.086Z,67.74
2022-11-30T16:12:33.376Z,67.79
2022-11-30T16:15:00.205Z,67.88
2022-11-30T16:17:28.258Z,67.83
2022-11-30T16:19:55.082Z,67.61
2022-11-30T16:22:21.942Z,67.65
2022-11-30T16:24:49.148Z,67.45
2022-11-30T16:27:18.599Z,67.67
2022-11-30T16:29:50.668Z,67.55
2022-11-30T16:32:19.424Z,67.58
2022-11-30T16:34:48.022Z,67.61
2022-11-30T16:37:15.056Z,67.73
2022-11-30T16:39:41.853Z,67.66
2022-11-30T16:42:12.362Z,67.68
2022-11-30T16:44:39.228Z,67.61
2022-11-30T16:47:06.196Z,67.73
2022-11-30T16:49:32.956Z,67.67
2022-11-30T16:51:59.723Z,67.80
2022-11-30T16:54:26.596Z,67.67
2022-11-30T16:56:53.358Z,67.56
2022-11-30T16:59:20.097Z,67.51
2022-11-30T17:01:53.007Z,67.37
2022-11-30T17:04:26.118Z,67.68
2022-11-30T17:07:00.567Z,67.49
2022-11-30T17:09:30.501Z,67.55
2022-11-30T17:11:57.517Z,67.47
2022-11-30T17:14:24.347Z,67.44
2022-11-30T17:16:51.317Z,67.49
2022-11-30T17:19:18.403Z,67.74
2022-11-30T17:21:45.301Z,67.66
2022-11-30T17:24:12.860Z,67.84
2022-11-30T17:26:39.951Z,67.47
2022-11-30T17:29:06.777Z,67.64
2022-11-30T17:31:33.723Z,67.68
2022-11-30T17:34:00.671Z,67.55
2022-11-30T17:36:29.406Z,67.77
2022-11-30T17:38:56.887Z,67.72
2022-11-30T17:41:23.998Z,67.71
2022-11-30T17:43:52.146Z,67.52
2022-11-30T17:46:19.389Z,67.39
2022-11-30T17:48:46.644Z,67.55
2022-11-30T17:51:14.069Z,67.67
2022-11-30T17:53:42.472Z,67.50
2022-11-30T17:56:11.563Z,67.41
2022-11-30T17:58:43.833Z,67.31
2022-11-30T18:01:24.068Z,67.33
2022-11-30T18:03:51.967Z,67.36
2022-11-30T18:06:19.430Z,67.34
2022-11-30T18:08:46.463Z,67.52
2022-11-30T18:11:20.353Z,67.50
2022-11-30T18:13:53.503Z,67.50
2022-11-30T18:16:29.225Z,67.39
2022-11-30T18:18:58.552Z,67.65
2022-11-30T18:21:28.391Z,67.64
2022-11-30T18:23:57.347Z,67.52
2022-11-30T18:26:26.041Z,67.45
2022-11-30T18:28:58.917Z,67.58
2022-11-30T18:31:26.943Z,67.56
2022-11-30T18:33:55.998Z,67.58
2022-11-30T18:36:23.113Z,67.69
2022-11-30T18:38:49.966Z,67.52
2022-11-30T18:41:16.930Z,67.42
2022-11-30T18:43:43.776Z,67.60
2022-11-30T18:46:12.781Z,67.52
2022-11-30T18:48:40.787Z,67.50
2022-11-30T18:51:14.580Z,67.53
2022-11-30T18:53:42.004Z,67.93
2022-11-30T18:56:13.716Z,67.92
2022-11-30T18:58:44.080Z,67.85
2022-11-30T19:01:20.666Z,67.88
2022-11-30T19:03:51.574Z,67.70
2022-11-30T19:06:19.195Z,67.72
2022-11-30T19:08:47.826Z,67.65
2022-11-30T19:11:16.397Z,67.95
2022-11-30T19:13:43.976Z,67.77
2022-11-30T19:16:13.878Z,67.76
2022-11-30T19:18:41.143Z,67.68
2022-11-30T19:21:14.416Z,67.54
2022-11-30T19:23:41.241Z,67.59
2022-11-30T19:26:10.278Z,67.85
2022-11-30T19:28:38.611Z,67.72
2022-11-30T19:31:14.169Z,67.73
2022-11-30T19:33:43.079Z,67.77
2022-11-30T19:36:15.379Z,67.53
2022-11-30T19:38:42.536Z,67.60
2022-11-30T19:41:11.679Z,67.64
2022-11-30T19:43:38.786Z,67.74
2022-11-30T19:46:12.385Z,67.53
2022-11-30T19:48:39.629Z,67.51
2022-11-30T19:51:16.380Z,67.77
2022-11-30T19:53:44.714Z,67.88
2022-11-30T19:56:14.840Z,67.78
2022-11-30T19:58:43.949Z,67.72
2022-11-30T20:01:19.844Z,67.79
2022-11-30T20:03:46.727Z,67.70
2022-11-30T20:06:13.920Z,67.99
2022-11-30T20:08:41.108Z,67.57
2022-11-30T20:11:09.786Z,67.77
2022-11-30T20:13:36.935Z,67.81
2022-11-30T20:16:09.318Z,67.58
2022-11-30T20:18:40.102Z,67.43
2022-11-30T20:21:22.289Z,67.37
2022-11-30T20:23:49.908Z,67.59
2022-11-30T20:26:23.709Z,67.69
2022-11-30T20:28:51.968Z,67.57
2022-11-30T20:31:21.349Z,67.63
2022-11-30T20:33:48.820Z,67.60
2022-11-30T20:36:16.911Z,67.63
2022-11-30T20:38:44.454Z,67.77
2022-11-30T20:41:13.715Z,67.63
2022-11-30T20:43:42.129Z,67.70
2022-11-30T20:46:33.992Z,67.46
2022-11-30T20:49:02.424Z,67.27
2022-11-30T20:51:33.241Z,67.31
2022-11-30T20:54:02.519Z,67.30
2022-11-30T20:56:29.758Z,67.31
2022-11-30T20:58:56.631Z,67.45
2022-11-30T21:01:23.777Z,67.49
2022-11-30T21:03:50.671Z,67.46
2022-11-30T21:06:17.856Z,67.39
2022-11-30T21:08:44.688Z,67.40
2022-11-30T21:11:14.496Z,67.42
2022-11-30T21:13:44.168Z,67.52
2022-11-30T21:16:11.968Z,67.24
2022-11-30T21:18:40.765Z,67.43
2022-11-30T21:21:12.641Z,67.29
2022-11-30T21:23:39.873Z,67.45
2022-11-30T21:26:09.403Z,67.49
2022-11-30T21:28:38.318Z,67.40
2022-11-30T21:31:05.929Z,67.29
2022-11-30T21:33:33.202Z,67.42
2022-11-30T21:36:00.033Z,67.62
2022-11-30T21:38:26.918Z,67.61
2022-11-30T21:40:59.156Z,67.65
2022-11-30T21:43:27.525Z,67.82
2022-11-30T21:46:04.586Z,67.60
2022-11-30T21:48:34.383Z,67.67
2022-11-30T21:51:09.286Z,67.52
2022-11-30T21:53:39.339Z,67.38
2022-11-30T21:56:08.695Z,67.40
2022-11-30T21:58:35.487Z,67.37
2022-11-30T22:01:03.201Z,67.43
2022-11-30T22:03:30.488Z,67.46
2022-11-30T22:06:06.605Z,67.51
2022-11-30T22:08:34.359Z,67.18
2022-11-30T22:11:06.442Z,67.39
2022-11-30T22:13:33.962Z,67.43
2022-11-30T22:16:07.300Z,67.57
2022-11-30T22:18:35.639Z,67.54
2022-11-30T22:21:07.835Z,67.75
2022-11-30T22:23:36.387Z,67.59
2022-11-30T22:26:17.309Z,67.70
2022-11-30T22:28:47.124Z,67.78
2022-11-30T22:31:15.603Z,67.64
2022-11-30T22:33:43.586Z,67.52
2022-11-30T22:36:14.846Z,67.28
2022-11-30T22:38:42.156Z,67.53
2022-11-30T22:41:14.626Z,67.44
2022-11-30T22:43:42.709Z,67.49
2022-11-30T22:46:13.308Z,67.43
2022-11-30T22:48:40.803Z,67.78
2022-11-30T22:51:13.110Z,67.52
2022-11-30T22:53:41.286Z,67.47
2022-11-30T22:56:26.263Z,67.37
2022-11-30T22:58:56.066Z,67.38
2022-11-30T23:01:24.381Z,67.83
2022-11-30T23:03:53.810Z,67.97
2022-11-30T23:06:21.460Z,67.95
2022-11-30T23:08:49.015Z,67.94
2022-11-30T23:11:21.716Z,67.71
2022-11-30T23:13:49.184Z,67.76
2022-11-30T23:16:16.894Z,67.81
2022-11-30T23:18:49.771Z,67.87
2022-11-30T23:21:20.073Z,68.01
2022-11-30T23:23:47.249Z,67.95
2022-11-30T23:26:23.557Z,67.95
2022-11-30T23:28:51.933Z,68.08
2022-11-30T23:31:32.913Z,67.90
2022-11-30T23:34:02.584Z,68.02
2022-11-30T23:36:29.412Z,67.74
2022-11-30T23:38:58.785Z,67.94
2022-11-30T23:41:26.339Z,67.90
2022-11-30T23:43:53.582Z,68.04
2022-11-30T23:46:20.705Z,68.15
2022-11-30T23:48:47.630Z,67.93
2022-11-30T23:51:14.580Z,68.21
2022-11-30T23:53:41.397Z,68.18
2022-11-30T23:56:12.007Z,68.16
2022-11-30T23:58:39.783Z,68.07
